sensor_id;sensor_type;location;lat;lon;timestamp;temperature;humidity
52919;DHT22;38793;52.690;6.812;2022-07-12T00:01:55;14.90;99.90
52919;DHT22;38793;52.690;6.812;2022-07-12T00:04:20;14.80;99.90
52919;DHT22;38793;52.690;6.812;2022-07-12T00:06:46;14.70;99.90
52919;DHT22;38793;52.690;6.812;2022-07-12T00:09:12;14.70;99.90
52919;DHT22;38793;52.690;6.812;2022-07-12T00:11:37;14.60;99.90
52919;DHT22;38793;52.690;6.812;2022-07-12T00:14:04;14.60;99.90
52919;DHT22;38793;52.690;6.812;2022-07-12T00:16:30;14.60;99.90
52919;DHT22;38793;52.690;6.812;2022-07-12T00:18:55;14.60;99.90
52919;DHT22;38793;52.690;6.812;2022-07-12T00:21:21;14.60;99.90
52919;DHT22;38793;52.690;6.812;2022-07-12T00:23:46;14.50;99.90
52919;DHT22;38793;52.690;6.812;2022-07-12T00:26:12;14.50;99.90
52919;DHT22;38793;52.690;6.812;2022-07-12T00:28:38;14.40;99.90
52919;DHT22;38793;52.690;6.812;2022-07-12T00:31:03;14.30;99.90
52919;DHT22;38793;52.690;6.812;2022-07-12T00:33:29;14.30;99.90
52919;DHT22;38793;52.690;6.812;2022-07-12T00:35:55;14.20;99.90
52919;DHT22;38793;52.690;6.812;2022-07-12T00:38:21;14.20;99.90
52919;DHT22;38793;52.690;6.812;2022-07-12T00:40:47;14.20;99.90
52919;DHT22;38793;52.690;6.812;2022-07-12T00:43:12;14.20;99.90
52919;DHT22;38793;52.690;6.812;2022-07-12T00:45:38;14.20;99.90
52919;DHT22;38793;52.690;6.812;2022-07-12T00:48:04;14.10;99.90
52919;DHT22;38793;52.690;6.812;2022-07-12T00:50:30;14.10;99.90
52919;DHT22;38793;52.690;6.812;2022-07-12T00:52:55;14.10;99.90
52919;DHT22;38793;52.690;6.812;2022-07-12T00:55:22;14.00;99.90
52919;DHT22;38793;52.690;6.812;2022-07-12T00:57:48;14.00;99.90
52919;DHT22;38793;52.690;6.812;2022-07-12T01:00:20;14.10;99.90
52919;DHT22;38793;52.690;6.812;2022-07-12T01:02:47;14.10;99.90
52919;DHT22;38793;52.690;6.812;2022-07-12T01:05:13;14.00;99.90
52919;DHT22;38793;52.690;6.812;2022-07-12T01:07:39;14.00;99.90
52919;DHT22;38793;52.690;6.812;2022-07-12T01:10:06;14.00;99.90
52919;DHT22;38793;52.690;6.812;2022-07-12T01:12:32;14.00;99.90
52919;DHT22;38793;52.690;6.812;2022-07-12T01:14:58;13.90;99.90
52919;DHT22;38793;52.690;6.812;2022-07-12T01:17:26;13.90;99.90
52919;DHT22;38793;52.690;6.812;2022-07-12T01:19:53;13.90;99.90
52919;DHT22;38793;52.690;6.812;2022-07-12T01:22:21;13.90;99.90
52919;DHT22;38793;52.690;6.812;2022-07-12T01:24:50;13.90;99.90
52919;DHT22;38793;52.690;6.812;2022-07-12T01:27:16;13.90;99.90
52919;DHT22;38793;52.690;6.812;2022-07-12T01:29:43;13.90;99.90
52919;DHT22;38793;52.690;6.812;2022-07-12T01:32:09;13.90;99.90
52919;DHT22;38793;52.690;6.812;2022-07-12T01:35:03;13.80;99.90
52919;DHT22;38793;52.690;6.812;2022-07-12T01:37:34;13.70;99.90
52919;DHT22;38793;52.690;6.812;2022-07-12T01:40:00;13.60;99.90
52919;DHT22;38793;52.690;6.812;2022-07-12T01:42:28;13.40;99.90
52919;DHT22;38793;52.690;6.812;2022-07-12T01:44:54;13.40;99.90
52919;DHT22;38793;52.690;6.812;2022-07-12T01:47:23;13.40;99.90
52919;DHT22;38793;52.690;6.812;2022-07-12T01:49:49;13.40;99.90
52919;DHT22;38793;52.690;6.812;2022-07-12T01:52:15;13.40;99.90
52919;DHT22;38793;52.690;6.812;2022-07-12T01:54:41;13.40;99.90
52919;DHT22;38793;52.690;6.812;2022-07-12T01:57:07;13.50;99.90
52919;DHT22;38793;52.690;6.812;2022-07-12T01:59:33;13.50;99.90
52919;DHT22;38793;52.690;6.812;2022-07-12T02:01:59;13.50;99.90
52919;DHT22;38793;52.690;6.812;2022-07-12T02:04:26;13.50;99.90
52919;DHT22;38793;52.690;6.812;2022-07-12T02:06:52;13.50;99.90
52919;DHT22;38793;52.690;6.812;2022-07-12T02:09:17;13.50;99.90
52919;DHT22;38793;52.690;6.812;2022-07-12T02:11:44;13.50;99.90
52919;DHT22;38793;52.690;6.812;2022-07-12T02:14:11;13.40;99.90
52919;DHT22;38793;52.690;6.812;2022-07-12T02:16:42;13.40;99.90
52919;DHT22;38793;52.690;6.812;2022-07-12T02:19:09;13.40;99.90
52919;DHT22;38793;52.690;6.812;2022-07-12T02:21:36;13.40;99.90
52919;DHT22;38793;52.690;6.812;2022-07-12T02:24:01;13.40;99.90
52919;DHT22;38793;52.690;6.812;2022-07-12T02:26:28;13.40;99.90
52919;DHT22;38793;52.690;6.812;2022-07-12T02:28:53;13.40;99.90
52919;DHT22;38793;52.690;6.812;2022-07-12T02:31:19;13.30;99.90
52919;DHT22;38793;52.690;6.812;2022-07-12T02:33:45;13.20;99.90
52919;DHT22;38793;52.690;6.812;2022-07-12T02:36:10;13.20;99.90
52919;DHT22;38793;52.690;6.812;2022-07-12T02:38:36;13.00;99.90
52919;DHT22;38793;52.690;6.812;2022-07-12T02:41:02;13.00;99.90
52919;DHT22;38793;52.690;6.812;2022-07-12T02:43:29;12.90;99.90
52919;DHT22;38793;52.690;6.812;2022-07-12T02:46:03;12.90;99.90
52919;DHT22;38793;52.690;6.812;2022-07-12T02:48:30;12.80;99.90
52919;DHT22;38793;52.690;6.812;2022-07-12T02:50:55;12.90;99.90
52919;DHT22;38793;52.690;6.812;2022-07-12T02:53:21;12.90;99.90
52919;DHT22;38793;52.690;6.812;2022-07-12T02:55:47;12.90;99.90
52919;DHT22;38793;52.690;6.812;2022-07-12T02:58:13;12.90;99.90
52919;DHT22;38793;52.690;6.812;2022-07-12T03:00:38;12.90;99.90
52919;DHT22;38793;52.690;6.812;2022-07-12T03:03:04;12.90;99.90
52919;DHT22;38793;52.690;6.812;2022-07-12T03:05:36;12.80;99.90
52919;DHT22;38793;52.690;6.812;2022-07-12T03:08:04;12.70;99.90
52919;DHT22;38793;52.690;6.812;2022-07-12T03:10:30;12.70;99.90
52919;DHT22;38793;52.690;6.812;2022-07-12T03:12:56;12.70;99.90
52919;DHT22;38793;52.690;6.812;2022-07-12T03:15:22;12.60;99.90
52919;DHT22;38793;52.690;6.812;2022-07-12T03:17:47;12.60;99.90
52919;DHT22;38793;52.690;6.812;2022-07-12T03:20:13;12.60;99.90
52919;DHT22;38793;52.690;6.812;2022-07-12T03:22:43;12.60;99.90
52919;DHT22;38793;52.690;6.812;2022-07-12T03:25:11;12.60;99.90
52919;DHT22;38793;52.690;6.812;2022-07-12T03:27:37;12.50;99.90
52919;DHT22;38793;52.690;6.812;2022-07-12T03:30:03;12.50;99.90
52919;DHT22;38793;52.690;6.812;2022-07-12T03:32:29;12.40;99.90
52919;DHT22;38793;52.690;6.812;2022-07-12T03:34:55;12.40;99.90
52919;DHT22;38793;52.690;6.812;2022-07-12T03:37:20;12.40;99.90
52919;DHT22;38793;52.690;6.812;2022-07-12T03:39:46;12.40;99.90
52919;DHT22;38793;52.690;6.812;2022-07-12T03:42:11;12.30;99.90
52919;DHT22;38793;52.690;6.812;2022-07-12T03:44:38;12.40;99.90
52919;DHT22;38793;52.690;6.812;2022-07-12T03:47:03;12.40;99.90
52919;DHT22;38793;52.690;6.812;2022-07-12T03:49:29;12.30;99.90
52919;DHT22;38793;52.690;6.812;2022-07-12T03:51:55;12.40;99.90
52919;DHT22;38793;52.690;6.812;2022-07-12T03:54:20;12.40;99.90
52919;DHT22;38793;52.690;6.812;2022-07-12T03:56:46;12.40;99.90
52919;DHT22;38793;52.690;6.812;2022-07-12T03:59:30;12.40;99.90
52919;DHT22;38793;52.690;6.812;2022-07-12T04:01:56;12.40;99.90
52919;DHT22;38793;52.690;6.812;2022-07-12T04:04:22;12.40;99.90
52919;DHT22;38793;52.690;6.812;2022-07-12T04:06:47;12.40;99.90
52919;DHT22;38793;52.690;6.812;2022-07-12T04:09:13;12.50;99.90
52919;DHT22;38793;52.690;6.812;2022-07-12T04:11:38;12.40;99.90
52919;DHT22;38793;52.690;6.812;2022-07-12T04:14:04;12.50;99.90
52919;DHT22;38793;52.690;6.812;2022-07-12T04:16:29;12.50;99.90
52919;DHT22;38793;52.690;6.812;2022-07-12T04:18:56;12.50;99.90
52919;DHT22;38793;52.690;6.812;2022-07-12T04:21:21;12.50;99.90
52919;DHT22;38793;52.690;6.812;2022-07-12T04:23:47;12.50;99.90
52919;DHT22;38793;52.690;6.812;2022-07-12T04:26:13;12.50;99.90
52919;DHT22;38793;52.690;6.812;2022-07-12T04:28:38;12.60;99.90
52919;DHT22;38793;52.690;6.812;2022-07-12T04:31:05;12.60;99.90
52919;DHT22;38793;52.690;6.812;2022-07-12T04:33:32;12.60;99.90
52919;DHT22;38793;52.690;6.812;2022-07-12T04:35:58;12.60;99.90
52919;DHT22;38793;52.690;6.812;2022-07-12T04:38:23;12.60;99.90
52919;DHT22;38793;52.690;6.812;2022-07-12T04:40:49;12.60;99.90
52919;DHT22;38793;52.690;6.812;2022-07-12T04:43:14;12.70;99.90
52919;DHT22;38793;52.690;6.812;2022-07-12T04:45:40;12.70;99.90
52919;DHT22;38793;52.690;6.812;2022-07-12T04:48:10;12.70;99.90
52919;DHT22;38793;52.690;6.812;2022-07-12T04:50:35;12.70;99.90
52919;DHT22;38793;52.690;6.812;2022-07-12T04:53:01;12.70;99.90
52919;DHT22;38793;52.690;6.812;2022-07-12T04:55:27;12.80;99.90
52919;DHT22;38793;52.690;6.812;2022-07-12T04:57:52;12.80;99.90
52919;DHT22;38793;52.690;6.812;2022-07-12T05:00:18;12.80;99.90
52919;DHT22;38793;52.690;6.812;2022-07-12T05:02:43;12.80;99.90
52919;DHT22;38793;52.690;6.812;2022-07-12T05:05:09;12.80;99.90
52919;DHT22;38793;52.690;6.812;2022-07-12T05:07:34;12.80;99.90
52919;DHT22;38793;52.690;6.812;2022-07-12T05:10:00;12.90;99.90
52919;DHT22;38793;52.690;6.812;2022-07-12T05:12:25;12.90;99.90
52919;DHT22;38793;52.690;6.812;2022-07-12T05:14:51;12.90;99.90
52919;DHT22;38793;52.690;6.812;2022-07-12T05:17:16;13.00;99.90
52919;DHT22;38793;52.690;6.812;2022-07-12T05:19:42;13.10;99.90
52919;DHT22;38793;52.690;6.812;2022-07-12T05:22:08;13.20;99.90
52919;DHT22;38793;52.690;6.812;2022-07-12T05:24:33;13.20;99.90
52919;DHT22;38793;52.690;6.812;2022-07-12T05:26:59;13.30;99.90
52919;DHT22;38793;52.690;6.812;2022-07-12T05:29:24;13.40;99.90
52919;DHT22;38793;52.690;6.812;2022-07-12T05:31:50;13.60;99.90
52919;DHT22;38793;52.690;6.812;2022-07-12T05:34:15;13.60;99.90
52919;DHT22;38793;52.690;6.812;2022-07-12T05:36:41;13.70;99.90
52919;DHT22;38793;52.690;6.812;2022-07-12T05:39:06;13.80;99.90
52919;DHT22;38793;52.690;6.812;2022-07-12T05:41:32;13.90;99.90
52919;DHT22;38793;52.690;6.812;2022-07-12T05:43:58;14.10;99.90
52919;DHT22;38793;52.690;6.812;2022-07-12T05:46:23;14.10;99.90
52919;DHT22;38793;52.690;6.812;2022-07-12T05:48:49;14.20;99.90
52919;DHT22;38793;52.690;6.812;2022-07-12T05:51:15;14.30;99.90
52919;DHT22;38793;52.690;6.812;2022-07-12T05:53:59;14.50;99.90
52919;DHT22;38793;52.690;6.812;2022-07-12T05:56:24;14.60;99.90
52919;DHT22;38793;52.690;6.812;2022-07-12T05:58:50;14.70;99.90
52919;DHT22;38793;52.690;6.812;2022-07-12T06:01:16;14.80;99.90
52919;DHT22;38793;52.690;6.812;2022-07-12T06:03:42;14.90;99.90
52919;DHT22;38793;52.690;6.812;2022-07-12T06:06:08;15.00;99.90
52919;DHT22;38793;52.690;6.812;2022-07-12T06:08:34;15.20;99.90
52919;DHT22;38793;52.690;6.812;2022-07-12T06:10:59;15.30;99.90
52919;DHT22;38793;52.690;6.812;2022-07-12T06:13:25;15.50;99.90
52919;DHT22;38793;52.690;6.812;2022-07-12T06:15:50;15.60;99.90
52919;DHT22;38793;52.690;6.812;2022-07-12T06:18:16;15.80;99.90
52919;DHT22;38793;52.690;6.812;2022-07-12T06:20:41;15.90;99.90
52919;DHT22;38793;52.690;6.812;2022-07-12T06:23:07;16.10;99.90
52919;DHT22;38793;52.690;6.812;2022-07-12T06:25:32;16.20;99.90
52919;DHT22;38793;52.690;6.812;2022-07-12T06:28:01;16.30;99.90
52919;DHT22;38793;52.690;6.812;2022-07-12T06:30:27;16.50;99.90
52919;DHT22;38793;52.690;6.812;2022-07-12T06:32:52;16.60;99.90
52919;DHT22;38793;52.690;6.812;2022-07-12T06:35:18;16.60;99.90
52919;DHT22;38793;52.690;6.812;2022-07-12T06:37:44;16.70;99.90
52919;DHT22;38793;52.690;6.812;2022-07-12T06:40:10;16.70;99.90
52919;DHT22;38793;52.690;6.812;2022-07-12T06:42:35;16.80;99.90
52919;DHT22;38793;52.690;6.812;2022-07-12T06:45:01;16.80;99.90
52919;DHT22;38793;52.690;6.812;2022-07-12T06:47:27;16.90;99.90
52919;DHT22;38793;52.690;6.812;2022-07-12T06:49:53;16.90;99.90
52919;DHT22;38793;52.690;6.812;2022-07-12T06:52:18;17.00;99.90
52919;DHT22;38793;52.690;6.812;2022-07-12T06:54:44;17.00;99.90
52919;DHT22;38793;52.690;6.812;2022-07-12T06:57:10;17.10;99.90
52919;DHT22;38793;52.690;6.812;2022-07-12T06:59:35;17.10;99.90
52919;DHT22;38793;52.690;6.812;2022-07-12T07:02:01;17.20;99.90
52919;DHT22;38793;52.690;6.812;2022-07-12T07:04:27;17.20;99.90
52919;DHT22;38793;52.690;6.812;2022-07-12T07:06:53;17.30;99.90
52919;DHT22;38793;52.690;6.812;2022-07-12T07:09:18;17.40;99.90
52919;DHT22;38793;52.690;6.812;2022-07-12T07:11:44;17.40;99.90
52919;DHT22;38793;52.690;6.812;2022-07-12T07:14:10;17.50;99.90
52919;DHT22;38793;52.690;6.812;2022-07-12T07:16:36;17.50;99.90
52919;DHT22;38793;52.690;6.812;2022-07-12T07:19:02;17.60;99.90
52919;DHT22;38793;52.690;6.812;2022-07-12T07:21:28;17.70;99.90
52919;DHT22;38793;52.690;6.812;2022-07-12T07:23:53;17.70;99.90
52919;DHT22;38793;52.690;6.812;2022-07-12T07:26:19;17.80;99.90
52919;DHT22;38793;52.690;6.812;2022-07-12T07:28:45;17.90;99.90
52919;DHT22;38793;52.690;6.812;2022-07-12T07:31:30;17.90;99.90
52919;DHT22;38793;52.690;6.812;2022-07-12T07:33:58;18.00;99.90
52919;DHT22;38793;52.690;6.812;2022-07-12T07:36:24;18.00;99.90
52919;DHT22;38793;52.690;6.812;2022-07-12T07:38:49;18.10;99.90
52919;DHT22;38793;52.690;6.812;2022-07-12T07:41:15;18.30;99.90
52919;DHT22;38793;52.690;6.812;2022-07-12T07:43:40;18.30;99.90
52919;DHT22;38793;52.690;6.812;2022-07-12T07:46:06;18.40;99.90
52919;DHT22;38793;52.690;6.812;2022-07-12T07:48:31;18.50;99.90
52919;DHT22;38793;52.690;6.812;2022-07-12T07:50:57;18.50;99.90
52919;DHT22;38793;52.690;6.812;2022-07-12T07:53:24;18.60;99.90
52919;DHT22;38793;52.690;6.812;2022-07-12T07:55:50;18.70;99.90
52919;DHT22;38793;52.690;6.812;2022-07-12T07:58:16;18.80;99.90
52919;DHT22;38793;52.690;6.812;2022-07-12T08:00:41;18.80;99.90
52919;DHT22;38793;52.690;6.812;2022-07-12T08:03:07;19.00;99.90
52919;DHT22;38793;52.690;6.812;2022-07-12T08:05:33;19.10;99.90
52919;DHT22;38793;52.690;6.812;2022-07-12T08:07:58;19.10;99.90
52919;DHT22;38793;52.690;6.812;2022-07-12T08:10:25;19.20;99.90
52919;DHT22;38793;52.690;6.812;2022-07-12T08:12:51;19.30;99.90
52919;DHT22;38793;52.690;6.812;2022-07-12T08:15:16;19.30;99.90
52919;DHT22;38793;52.690;6.812;2022-07-12T08:17:42;19.40;99.90
52919;DHT22;38793;52.690;6.812;2022-07-12T08:20:08;19.50;99.90
52919;DHT22;38793;52.690;6.812;2022-07-12T08:22:33;19.50;99.90
52919;DHT22;38793;52.690;6.812;2022-07-12T08:25:00;19.60;99.90
52919;DHT22;38793;52.690;6.812;2022-07-12T08:27:25;19.60;99.90
52919;DHT22;38793;52.690;6.812;2022-07-12T08:29:51;19.70;99.90
52919;DHT22;38793;52.690;6.812;2022-07-12T08:32:16;19.80;99.90
52919;DHT22;38793;52.690;6.812;2022-07-12T08:34:42;19.80;99.90
52919;DHT22;38793;52.690;6.812;2022-07-12T08:37:08;19.80;99.90
52919;DHT22;38793;52.690;6.812;2022-07-12T08:39:33;19.90;99.90
52919;DHT22;38793;52.690;6.812;2022-07-12T08:41:59;20.00;99.90
52919;DHT22;38793;52.690;6.812;2022-07-12T08:44:25;20.10;99.90
52919;DHT22;38793;52.690;6.812;2022-07-12T08:46:50;20.20;99.90
52919;DHT22;38793;52.690;6.812;2022-07-12T08:49:18;20.20;99.90
52919;DHT22;38793;52.690;6.812;2022-07-12T08:51:43;20.30;99.90
52919;DHT22;38793;52.690;6.812;2022-07-12T08:54:11;20.30;99.90
52919;DHT22;38793;52.690;6.812;2022-07-12T08:56:43;20.40;99.90
52919;DHT22;38793;52.690;6.812;2022-07-12T08:59:19;20.40;99.90
52919;DHT22;38793;52.690;6.812;2022-07-12T09:01:50;20.50;99.90
52919;DHT22;38793;52.690;6.812;2022-07-12T09:04:21;20.50;99.90
52919;DHT22;38793;52.690;6.812;2022-07-12T09:06:47;20.60;99.90
52919;DHT22;38793;52.690;6.812;2022-07-12T09:09:29;20.70;99.90
52919;DHT22;38793;52.690;6.812;2022-07-12T09:11:55;20.70;99.90
52919;DHT22;38793;52.690;6.812;2022-07-12T09:14:21;20.80;99.90
52919;DHT22;38793;52.690;6.812;2022-07-12T09:19:29;20.90;99.90
52919;DHT22;38793;52.690;6.812;2022-07-12T09:21:55;21.00;99.90
52919;DHT22;38793;52.690;6.812;2022-07-12T09:24:23;21.10;99.90
52919;DHT22;38793;52.690;6.812;2022-07-12T09:26:55;21.20;99.90
52919;DHT22;38793;52.690;6.812;2022-07-12T09:29:21;21.20;99.90
52919;DHT22;38793;52.690;6.812;2022-07-12T09:31:50;21.30;99.90
52919;DHT22;38793;52.690;6.812;2022-07-12T09:34:36;21.40;99.90
52919;DHT22;38793;52.690;6.812;2022-07-12T09:37:21;21.40;99.90
52919;DHT22;38793;52.690;6.812;2022-07-12T09:39:50;21.50;99.90
52919;DHT22;38793;52.690;6.812;2022-07-12T09:42:17;21.50;99.90
52919;DHT22;38793;52.690;6.812;2022-07-12T09:44:43;21.60;99.90
52919;DHT22;38793;52.690;6.812;2022-07-12T09:47:09;21.60;99.90
52919;DHT22;38793;52.690;6.812;2022-07-12T09:49:39;21.70;99.90
52919;DHT22;38793;52.690;6.812;2022-07-12T09:52:10;21.70;99.90
52919;DHT22;38793;52.690;6.812;2022-07-12T09:54:40;21.80;99.90
52919;DHT22;38793;52.690;6.812;2022-07-12T09:57:12;22.00;99.90
52919;DHT22;38793;52.690;6.812;2022-07-12T09:59:39;22.10;99.90
52919;DHT22;38793;52.690;6.812;2022-07-12T10:02:05;22.10;99.90
52919;DHT22;38793;52.690;6.812;2022-07-12T10:04:32;22.10;99.90
52919;DHT22;38793;52.690;6.812;2022-07-12T10:06:58;22.10;99.90
52919;DHT22;38793;52.690;6.812;2022-07-12T10:09:24;22.10;99.90
52919;DHT22;38793;52.690;6.812;2022-07-12T10:11:51;22.10;99.90
52919;DHT22;38793;52.690;6.812;2022-07-12T10:14:17;22.10;99.90
52919;DHT22;38793;52.690;6.812;2022-07-12T10:16:44;22.10;99.90
52919;DHT22;38793;52.690;6.812;2022-07-12T10:19:27;22.20;99.90
52919;DHT22;38793;52.690;6.812;2022-07-12T10:21:56;22.30;99.90
52919;DHT22;38793;52.690;6.812;2022-07-12T10:29:45;22.60;99.90
52919;DHT22;38793;52.690;6.812;2022-07-12T10:32:24;22.70;99.90
52919;DHT22;38793;52.690;6.812;2022-07-12T10:35:03;22.80;99.90
52919;DHT22;38793;52.690;6.812;2022-07-12T10:37:31;22.80;99.90
52919;DHT22;38793;52.690;6.812;2022-07-12T10:40:13;22.90;99.90
52919;DHT22;38793;52.690;6.812;2022-07-12T10:43:26;22.90;99.90
52919;DHT22;38793;52.690;6.812;2022-07-12T10:45:33;22.90;99.90
52919;DHT22;38793;52.690;6.812;2022-07-12T10:48:01;23.00;99.90
52919;DHT22;38793;52.690;6.812;2022-07-12T10:58:36;23.20;99.90
52919;DHT22;38793;52.690;6.812;2022-07-12T11:01:07;23.30;99.90
52919;DHT22;38793;52.690;6.812;2022-07-12T11:03:41;23.30;99.90
52919;DHT22;38793;52.690;6.812;2022-07-12T11:06:09;23.30;99.90
52919;DHT22;38793;52.690;6.812;2022-07-12T11:11:16;23.40;99.90
52919;DHT22;38793;52.690;6.812;2022-07-12T11:13:41;23.40;99.90
52919;DHT22;38793;52.690;6.812;2022-07-12T11:16:07;23.50;99.90
52919;DHT22;38793;52.690;6.812;2022-07-12T11:18:35;23.50;99.90
52919;DHT22;38793;52.690;6.812;2022-07-12T11:21:01;23.50;99.90
52919;DHT22;38793;52.690;6.812;2022-07-12T11:23:29;23.60;99.90
52919;DHT22;38793;52.690;6.812;2022-07-12T11:25:55;23.60;99.90
52919;DHT22;38793;52.690;6.812;2022-07-12T11:28:23;23.70;99.90
52919;DHT22;38793;52.690;6.812;2022-07-12T11:30:52;23.70;99.90
52919;DHT22;38793;52.690;6.812;2022-07-12T11:33:24;23.80;99.90
52919;DHT22;38793;52.690;6.812;2022-07-12T11:35:51;23.80;99.90
52919;DHT22;38793;52.690;6.812;2022-07-12T11:38:24;23.80;99.90
52919;DHT22;38793;52.690;6.812;2022-07-12T11:41:02;23.90;99.90
52919;DHT22;38793;52.690;6.812;2022-07-12T11:43:28;24.00;99.60
52919;DHT22;38793;52.690;6.812;2022-07-12T11:45:54;24.00;99.90
52919;DHT22;38793;52.690;6.812;2022-07-12T11:48:20;24.00;99.90
52919;DHT22;38793;52.690;6.812;2022-07-12T11:50:49;24.10;99.90
52919;DHT22;38793;52.690;6.812;2022-07-12T11:55:46;24.20;99.60
52919;DHT22;38793;52.690;6.812;2022-07-12T11:58:13;24.30;99.60
52919;DHT22;38793;52.690;6.812;2022-07-12T12:00:39;24.30;99.20
52919;DHT22;38793;52.690;6.812;2022-07-12T12:03:05;24.30;99.70
52919;DHT22;38793;52.690;6.812;2022-07-12T12:05:31;24.40;99.40
52919;DHT22;38793;52.690;6.812;2022-07-12T12:07:57;24.50;99.60
52919;DHT22;38793;52.690;6.812;2022-07-12T12:10:23;24.50;98.60
52919;DHT22;38793;52.690;6.812;2022-07-12T12:12:51;24.50;98.40
52919;DHT22;38793;52.690;6.812;2022-07-12T12:15:23;24.50;97.30
52919;DHT22;38793;52.690;6.812;2022-07-12T12:20:23;24.60;98.60
52919;DHT22;38793;52.690;6.812;2022-07-12T12:22:51;24.60;97.90
52919;DHT22;38793;52.690;6.812;2022-07-12T12:25:19;24.60;97.50
52919;DHT22;38793;52.690;6.812;2022-07-12T12:27:50;24.60;98.10
52919;DHT22;38793;52.690;6.812;2022-07-12T12:30:18;24.60;98.00
52919;DHT22;38793;52.690;6.812;2022-07-12T12:32:52;24.60;98.10
52919;DHT22;38793;52.690;6.812;2022-07-12T12:35:23;24.70;98.00
52919;DHT22;38793;52.690;6.812;2022-07-12T12:38:02;24.70;97.60
52919;DHT22;38793;52.690;6.812;2022-07-12T12:40:32;24.70;98.30
52919;DHT22;38793;52.690;6.812;2022-07-12T12:43:09;24.70;98.30
52919;DHT22;38793;52.690;6.812;2022-07-12T12:45:35;24.80;98.70
52919;DHT22;38793;52.690;6.812;2022-07-12T12:48:03;24.80;98.30
52919;DHT22;38793;52.690;6.812;2022-07-12T12:50:36;24.90;97.90
52919;DHT22;38793;52.690;6.812;2022-07-12T12:53:17;24.90;97.70
52919;DHT22;38793;52.690;6.812;2022-07-12T12:55:45;24.90;97.40
52919;DHT22;38793;52.690;6.812;2022-07-12T12:58:12;25.00;98.50
52919;DHT22;38793;52.690;6.812;2022-07-12T13:00:41;25.00;97.90
52919;DHT22;38793;52.690;6.812;2022-07-12T13:03:11;25.00;97.70
52919;DHT22;38793;52.690;6.812;2022-07-12T13:05:38;25.10;97.70
52919;DHT22;38793;52.690;6.812;2022-07-12T13:08:05;25.10;97.90
52919;DHT22;38793;52.690;6.812;2022-07-12T13:10:32;25.20;97.60
52919;DHT22;38793;52.690;6.812;2022-07-12T13:12:58;25.20;97.60
52919;DHT22;38793;52.690;6.812;2022-07-12T13:15:25;25.20;97.70
52919;DHT22;38793;52.690;6.812;2022-07-12T13:17:50;25.30;98.20
52919;DHT22;38793;52.690;6.812;2022-07-12T13:20:16;25.50;98.30
52919;DHT22;38793;52.690;6.812;2022-07-12T13:22:42;25.50;97.80
52919;DHT22;38793;52.690;6.812;2022-07-12T13:25:09;25.60;98.20
52919;DHT22;38793;52.690;6.812;2022-07-12T13:27:36;25.60;97.40
52919;DHT22;38793;52.690;6.812;2022-07-12T13:30:03;25.60;96.80
52919;DHT22;38793;52.690;6.812;2022-07-12T13:32:28;25.60;96.10
52919;DHT22;38793;52.690;6.812;2022-07-12T13:34:54;25.70;96.40
52919;DHT22;38793;52.690;6.812;2022-07-12T13:37:20;25.60;96.70
52919;DHT22;38793;52.690;6.812;2022-07-12T13:39:45;25.70;96.50
52919;DHT22;38793;52.690;6.812;2022-07-12T13:42:29;25.80;96.70
52919;DHT22;38793;52.690;6.812;2022-07-12T13:44:55;25.80;96.10
52919;DHT22;38793;52.690;6.812;2022-07-12T13:47:22;25.80;95.60
52919;DHT22;38793;52.690;6.812;2022-07-12T13:49:49;25.80;95.70
52919;DHT22;38793;52.690;6.812;2022-07-12T13:52:15;25.80;94.90
52919;DHT22;38793;52.690;6.812;2022-07-12T13:54:41;25.70;94.40
52919;DHT22;38793;52.690;6.812;2022-07-12T13:57:09;25.80;94.30
52919;DHT22;38793;52.690;6.812;2022-07-12T13:59:35;25.70;94.30
52919;DHT22;38793;52.690;6.812;2022-07-12T14:02:00;25.70;94.00
52919;DHT22;38793;52.690;6.812;2022-07-12T14:04:26;25.70;94.00
52919;DHT22;38793;52.690;6.812;2022-07-12T14:06:52;25.70;94.10
52919;DHT22;38793;52.690;6.812;2022-07-12T14:09:17;25.70;94.10
52919;DHT22;38793;52.690;6.812;2022-07-12T14:11:43;25.70;93.90
52919;DHT22;38793;52.690;6.812;2022-07-12T14:14:09;25.70;93.40
52919;DHT22;38793;52.690;6.812;2022-07-12T14:16:34;25.70;93.80
52919;DHT22;38793;52.690;6.812;2022-07-12T14:19:00;25.60;93.50
52919;DHT22;38793;52.690;6.812;2022-07-12T14:21:26;25.60;93.00
52919;DHT22;38793;52.690;6.812;2022-07-12T14:23:58;25.60;93.60
52919;DHT22;38793;52.690;6.812;2022-07-12T14:26:28;25.70;93.70
52919;DHT22;38793;52.690;6.812;2022-07-12T14:28:53;25.70;93.30
52919;DHT22;38793;52.690;6.812;2022-07-12T14:31:19;25.80;93.60
52919;DHT22;38793;52.690;6.812;2022-07-12T14:33:44;25.80;92.90
52919;DHT22;38793;52.690;6.812;2022-07-12T14:36:10;25.80;93.50
52919;DHT22;38793;52.690;6.812;2022-07-12T14:38:36;25.80;93.60
52919;DHT22;38793;52.690;6.812;2022-07-12T14:41:02;25.80;93.00
52919;DHT22;38793;52.690;6.812;2022-07-12T14:43:28;25.80;93.20
52919;DHT22;38793;52.690;6.812;2022-07-12T14:45:53;25.80;93.50
52919;DHT22;38793;52.690;6.812;2022-07-12T14:48:19;25.80;93.90
52919;DHT22;38793;52.690;6.812;2022-07-12T14:50:45;25.80;93.60
52919;DHT22;38793;52.690;6.812;2022-07-12T14:53:11;25.70;93.80
52919;DHT22;38793;52.690;6.812;2022-07-12T14:55:36;25.80;93.70
52919;DHT22;38793;52.690;6.812;2022-07-12T14:58:02;25.70;93.80
52919;DHT22;38793;52.690;6.812;2022-07-12T15:00:28;25.70;93.40
52919;DHT22;38793;52.690;6.812;2022-07-12T15:02:54;25.80;93.20
52919;DHT22;38793;52.690;6.812;2022-07-12T15:05:28;25.70;93.10
52919;DHT22;38793;52.690;6.812;2022-07-12T15:07:53;25.70;93.60
52919;DHT22;38793;52.690;6.812;2022-07-12T15:10:19;25.70;93.70
52919;DHT22;38793;52.690;6.812;2022-07-12T15:12:45;25.60;94.10
52919;DHT22;38793;52.690;6.812;2022-07-12T15:15:11;25.60;93.70
52919;DHT22;38793;52.690;6.812;2022-07-12T15:17:37;25.60;93.40
52919;DHT22;38793;52.690;6.812;2022-07-12T15:20:04;25.60;93.70
52919;DHT22;38793;52.690;6.812;2022-07-12T15:22:31;25.60;93.70
52919;DHT22;38793;52.690;6.812;2022-07-12T15:24:57;25.60;94.00
52919;DHT22;38793;52.690;6.812;2022-07-12T15:27:22;25.60;94.10
52919;DHT22;38793;52.690;6.812;2022-07-12T15:29:48;25.50;93.60
52919;DHT22;38793;52.690;6.812;2022-07-12T15:32:16;25.50;93.80
52919;DHT22;38793;52.690;6.812;2022-07-12T15:34:42;25.50;93.40
52919;DHT22;38793;52.690;6.812;2022-07-12T15:37:08;25.50;93.30
52919;DHT22;38793;52.690;6.812;2022-07-12T15:39:33;25.50;93.50
52919;DHT22;38793;52.690;6.812;2022-07-12T15:41:59;25.50;93.30
52919;DHT22;38793;52.690;6.812;2022-07-12T15:44:25;25.50;93.60
52919;DHT22;38793;52.690;6.812;2022-07-12T15:46:53;25.50;93.20
52919;DHT22;38793;52.690;6.812;2022-07-12T15:49:19;25.50;93.20
52919;DHT22;38793;52.690;6.812;2022-07-12T15:51:44;25.50;93.40
52919;DHT22;38793;52.690;6.812;2022-07-12T15:54:28;25.50;93.60